Time;durP1;ratioP1;P1;durP2;ratioP2;P2;SDS_P1;SDS_P2;PMS_P1;PMS_P2;Temp;Humidity;BMP_temperature;BMP_pressure;BME280_temperature;BME280_humidity;BME280_pressure;Samples;Min_cycle;Max_cycle;Signal;HPM_P1;HPM_P2
2022/08/16 00:00:23;;;;;;;;;;;;;;;;;;5119762;27;20322;-88
2022/08/16 00:02:48;;;;;;;;;;;;;;;;;;5128530;27;19903;-86
2022/08/16 00:05:14;;;;;;;;;;;;;;;;;;5126414;27;19916;-86
2022/08/16 00:07:40;;;;;;;;;;;;;;;;;;5102615;27;19941;-85
2022/08/16 00:10:06;;;;;;;;;;;;;;;;;;5119520;27;19922;-86
2022/08/16 00:12:31;;;;;;;;;;;;;;;;;;5137528;27;19919;-85
2022/08/16 00:14:56;;;;;;;;;;;;;;;;;;5102485;27;19915;-85
2022/08/16 00:17:22;;;;;;;;;;;;;;;;;;5119396;27;19915;-85
2022/08/16 00:19:47;;;;;;;;;;;;;;;;;;5119653;27;19915;-85
2022/08/16 00:22:12;;;;;;;;;;;;;;;;;;5137554;27;19916;-85
2022/08/16 00:24:38;;;;;;;;;;;;;;;;;;5128870;27;19968;-85
2022/08/16 00:27:03;;;;;;;;;;;;;;;;;;5123369;27;19922;-85
2022/08/16 00:29:29;;;;;;;;;;;;;;;;;;5119155;27;20256;-85
2022/08/16 00:31:54;;;;;;;;;;;;;;;;;;5119419;27;19916;-85
2022/08/16 00:34:19;;;;;;;;;;;;;;;;;;5137366;27;20364;-86
2022/08/16 00:36:45;;;;;;;;;;;;;;;;;;5101878;27;20010;-87
2022/08/16 00:39:11;;;;;;;;;;;;;;;;;;5118975;27;19916;-88
2022/08/16 00:41:37;;;;;;;;;;;;;;;;;;5137358;27;19978;-87
2022/08/16 00:44:02;;;;;;;;;;;;;;;;;;5131633;27;19907;-86
2022/08/16 00:46:35;;;;;;;;;;;;;;;;;;5123885;27;19920;-85
2022/08/16 00:49:01;;;;;;;;;;;;;;;;;;5118676;27;19919;-86
2022/08/16 00:51:26;;;;;;;;;;;;;;;;;;5118612;27;19971;-86
2022/08/16 00:53:52;;;;;;;;;;;;;;;;;;5136969;27;19947;-86
2022/08/16 00:56:20;;;;;;;;;;;;;;;;;;5101402;27;20260;-86
2022/08/16 00:58:45;;;;;;;;;;;;;;;;;;5102131;27;20002;-85
2022/08/16 01:01:11;;;;;;;;;;;;;;;;;;5101392;27;19965;-85
2022/08/16 01:03:36;;;;;;;;;;;;;;;;;;5138820;27;19946;-85
2022/08/16 01:06:02;;;;;;;;;;;;;;;;;;5125317;27;19966;-85
2022/08/16 01:08:28;;;;;;;;;;;;;;;;;;5137129;27;19963;-86
2022/08/16 01:10:54;;;;;;;;;;;;;;;;;;5118112;27;19916;-85
2022/08/16 01:13:23;;;;;;;;;;;;;;;;;;5118580;27;19915;-86
2022/08/16 01:15:50;;;;;;;;;;;;;;;;;;5118343;27;20348;-85
2022/08/16 01:18:16;;;;;;;;;;;;;;;;;;5118356;27;19972;-85
2022/08/16 01:20:43;;;;;;;;;;;;;;;;;;5118377;27;19922;-85
2022/08/16 01:23:13;;;;;;;;;;;;;;;;;;5118289;27;19971;-85
2022/08/16 01:25:40;;;;;;;;;;;;;;;;;;5128270;27;20277;-85
2022/08/16 01:28:06;;;;;;;;;;;;;;;;;;5118407;27;19922;-84
2022/08/16 01:30:33;;;;;;;;;;;;;;;;;;5117842;27;19949;-85
2022/08/16 01:33:00;;;;;;;;;;;;;;;;;;5118163;27;19915;-84
2022/08/16 01:35:29;;;;;;;;;;;;;;;;;;5118143;27;19922;-84
2022/08/16 01:37:55;;;;;;;;;;;;;;;;;;5117970;27;19938;-85
2022/08/16 01:40:22;;;;;;;;;;;;;;;;;;5117822;27;19923;-84
2022/08/16 01:42:47;;;;;;;;;;;;;;;;;;5117703;27;19923;-84
2022/08/16 01:45:13;;;;;;;;;;;;;;;;;;5122033;27;19919;-85
2022/08/16 01:47:38;;;;;;;;;;;;;;;;;;5121066;27;19915;-85
2022/08/16 01:50:04;;;;;;;;;;;;;;;;;;5117691;27;19998;-84
2022/08/16 01:52:30;;;;;;;;;;;;;;;;;;5136332;27;19922;-85
2022/08/16 01:54:55;;;;;;;;;;;;;;;;;;5117247;27;19923;-84
2022/08/16 01:57:20;;;;;;;;;;;;;;;;;;5100739;27;20321;-85
2022/08/16 01:59:46;;;;;;;;;;;;;;;;;;5135987;27;19915;-85
2022/08/16 02:02:11;;;;;;;;;;;;;;;;;;5136152;27;19915;-86
2022/08/16 02:04:36;;;;;;;;;;;;;;;;;;5135862;27;19922;-85
2022/08/16 02:07:07;;;;;;;;;;;;;;;;;;5145475;27;19929;-84
2022/08/16 02:09:34;;;;;;;;;;;;;;;;;;5118270;27;19922;-85
2022/08/16 02:11:59;;;;;;;;;;;;;;;;;;5117726;27;19923;-85
2022/08/16 02:14:25;;;;;;;;;;;;;;;;;;5117379;27;19921;-85
2022/08/16 02:16:51;;;;;;;;;;;;;;;;;;5117028;27;19915;-86
2022/08/16 02:19:17;;;;;;;;;;;;;;;;;;5117144;27;20249;-86
2022/08/16 02:21:44;;;;;;;;;;;;;;;;;;5100218;28;19922;-86
2022/08/16 02:24:09;;;;;;;;;;;;;;;;;;5117487;28;19923;-87
2022/08/16 02:26:35;;;;;;;;;;;;;;;;;;5136825;28;20374;-88
2022/08/16 02:29:00;;;;;;;;;;;;;;;;;;5139253;28;19984;-87
2022/08/16 02:31:25;;;;;;;;;;;;;;;;;;5117314;28;19915;-85
2022/08/16 02:33:51;;;;;;;;;;;;;;;;;;5117141;28;19919;-86
2022/08/16 02:36:16;;;;;;;;;;;;;;;;;;5135326;28;19915;-84
2022/08/16 02:38:41;;;;;;;;;;;;;;;;;;5099920;28;19971;-85
2022/08/16 02:41:07;;;;;;;;;;;;;;;;;;5135427;28;20321;-85
2022/08/16 02:43:32;;;;;;;;;;;;;;;;;;5100021;28;19998;-84
2022/08/16 02:45:58;;;;;;;;;;;;;;;;;;5137073;28;19915;-84
2022/08/16 02:48:23;;;;;;;;;;;;;;;;;;5130213;28;19919;-85
2022/08/16 02:50:49;;;;;;;;;;;;;;;;;;5135336;28;20014;-85
2022/08/16 02:53:14;;;;;;;;;;;;;;;;;;5116746;28;19984;-85
2022/08/16 02:55:40;;;;;;;;;;;;;;;;;;5116928;28;19927;-84
2022/08/16 02:58:05;;;;;;;;;;;;;;;;;;5135383;28;19923;-85
2022/08/16 03:00:30;;;;;;;;;;;;;;;;;;5135199;28;19916;-86
2022/08/16 03:02:56;;;;;;;;;;;;;;;;;;5117421;28;20010;-86
2022/08/16 03:05:22;;;;;;;;;;;;;;;;;;5117359;28;20002;-85
2022/08/16 03:07:47;;;;;;;;;;;;;;;;;;5146495;28;20348;-86
2022/08/16 03:10:12;;;;;;;;;;;;;;;;;;5149107;27;19920;-86
2022/08/16 03:12:38;;;;;;;;;;;;;;;;;;5135577;28;20317;-85
2022/08/16 03:15:05;;;;;;;;;;;;;;;;;;5117064;28;19988;-85
2022/08/16 03:17:30;;;;;;;;;;;;;;;;;;5134911;28;20260;-85
2022/08/16 03:19:55;;;;;;;;;;;;;;;;;;5134990;28;19916;-86
2022/08/16 03:22:21;;;;;;;;;;;;;;;;;;5135113;28;20348;-87
2022/08/16 03:24:46;;;;;;;;;;;;;;;;;;5135372;28;20237;-87
2022/08/16 03:27:11;;;;;;;;;;;;;;;;;;5100509;27;20003;-87
2022/08/16 03:29:37;;;;;;;;;;;;;;;;;;5126354;27;19916;-89
2022/08/16 03:32:02;;;;;;;;;;;;;;;;;;5139066;27;19931;-88
2022/08/16 03:34:28;;;;;;;;;;;;;;;;;;5120265;27;19916;-84
2022/08/16 03:36:53;;;;;;;;;;;;;;;;;;5124062;27;20401;-85
2022/08/16 03:39:19;;;;;;;;;;;;;;;;;;5122489;27;19915;-85
2022/08/16 03:41:44;;;;;;;;;;;;;;;;;;5123698;27;19916;-85
2022/08/16 03:44:10;;;;;;;;;;;;;;;;;;5125994;27;19915;-85
2022/08/16 03:46:35;;;;;;;;;;;;;;;;;;5143283;27;19998;-86
2022/08/16 03:49:00;;;;;;;;;;;;;;;;;;5108911;27;20241;-86
2022/08/16 03:51:26;;;;;;;;;;;;;;;;;;5140352;27;20006;-86
2022/08/16 03:53:51;;;;;;;;;;;;;;;;;;5120370;27;20059;-85
2022/08/16 03:56:17;;;;;;;;;;;;;;;;;;5119879;27;19927;-86
2022/08/16 03:58:42;;;;;;;;;;;;;;;;;;5120097;27;19923;-85
2022/08/16 04:01:07;;;;;;;;;;;;;;;;;;5120184;27;19923;-85
2022/08/16 04:03:33;;;;;;;;;;;;;;;;;;5138398;27;20006;-86
2022/08/16 04:05:58;;;;;;;;;;;;;;;;;;5119857;27;20290;-85
2022/08/16 04:08:26;;;;;;;;;;;;;;;;;;5139105;27;20256;-85
2022/08/16 04:10:52;;;;;;;;;;;;;;;;;;5122110;27;19911;-87
2022/08/16 04:13:17;;;;;;;;;;;;;;;;;;5119919;27;19916;-87
2022/08/16 04:15:43;;;;;;;;;;;;;;;;;;5138009;27;19911;-87
2022/08/16 04:18:08;;;;;;;;;;;;;;;;;;5137674;27;19964;-89
2022/08/16 04:20:33;;;;;;;;;;;;;;;;;;5137655;27;19915;-85
2022/08/16 04:22:59;;;;;;;;;;;;;;;;;;5119831;27;19915;-88
2022/08/16 04:25:25;;;;;;;;;;;;;;;;;;5119467;27;19915;-87
2022/08/16 04:27:50;;;;;;;;;;;;;;;;;;5102757;27;20244;-88
2022/08/16 04:30:16;;;;;;;;;;;;;;;;;;5132222;27;19959;-86
2022/08/16 04:32:42;;;;;;;;;;;;;;;;;;5125189;27;20006;-88
2022/08/16 04:35:08;;;;;;;;;;;;;;;;;;5119575;27;20007;-88
2022/08/16 04:37:33;;;;;;;;;;;;;;;;;;5119540;27;19916;-85
2022/08/16 04:39:59;;;;;;;;;;;;;;;;;;5136859;27;19922;-84
2022/08/16 04:42:24;;;;;;;;;;;;;;;;;;5137759;27;20233;-86
2022/08/16 04:44:50;;;;;;;;;;;;;;;;;;5137581;27;20351;-85
2022/08/16 04:47:15;;;;;;;;;;;;;;;;;;5137204;27;19919;-84
2022/08/16 04:49:40;;;;;;;;;;;;;;;;;;5129937;27;19914;-84
2022/08/16 04:52:06;;;;;;;;;;;;;;;;;;5144831;27;19919;-85
2022/08/16 04:54:31;;;;;;;;;;;;;;;;;;5118798;27;19912;-85
2022/08/16 04:56:56;;;;;;;;;;;;;;;;;;5118462;27;19915;-84
2022/08/16 04:59:22;;;;;;;;;;;;;;;;;;5137562;27;19922;-85
2022/08/16 05:01:55;;;;;;;;;;;;;;;;;;5118851;27;19973;-84
2022/08/16 05:04:21;;;;;;;;;;;;;;;;;;5137163;27;19951;-85
2022/08/16 05:06:46;;;;;;;;;;;;;;;;;;5118605;27;19922;-84
2022/08/16 05:09:11;;;;;;;;;;;;;;;;;;5138831;27;19922;-84
2022/08/16 05:11:37;;;;;;;;;;;;;;;;;;5132753;27;19999;-84
2022/08/16 05:14:03;;;;;;;;;;;;;;;;;;5102025;27;20003;-86
2022/08/16 05:16:29;;;;;;;;;;;;;;;;;;5101416;27;19919;-84
2022/08/16 05:18:54;;;;;;;;;;;;;;;;;;5136534;27;19916;-86
2022/08/16 05:21:20;;;;;;;;;;;;;;;;;;5136633;27;20006;-87
2022/08/16 05:23:45;;;;;;;;;;;;;;;;;;5118359;27;20008;-85
2022/08/16 05:26:10;;;;;;;;;;;;;;;;;;5136969;27;20348;-86
2022/08/16 05:28:36;;;;;;;;;;;;;;;;;;5136809;27;20253;-87
2022/08/16 05:31:01;;;;;;;;;;;;;;;;;;5141629;27;20007;-85
2022/08/16 05:33:26;;;;;;;;;;;;;;;;;;5119328;27;19922;-85
2022/08/16 05:35:51;;;;;;;;;;;;;;;;;;5136498;27;19916;-86
2022/08/16 05:38:17;;;;;;;;;;;;;;;;;;5117607;27;19921;-85
2022/08/16 05:40:42;;;;;;;;;;;;;;;;;;5136286;27;19916;-80
2022/08/16 05:43:08;;;;;;;;;;;;;;;;;;5117527;27;20314;-81
2022/08/16 05:45:33;;;;;;;;;;;;;;;;;;5117884;27;19915;-80
2022/08/16 05:47:58;;;;;;;;;;;;;;;;;;5136269;27;19915;-80
2022/08/16 05:50:24;;;;;;;;;;;;;;;;;;5119251;28;19934;-80
2022/08/16 05:52:49;;;;;;;;;;;;;;;;;;5140631;27;19915;-82
2022/08/16 05:55:14;;;;;;;;;;;;;;;;;;5118035;27;19970;-82
2022/08/16 05:57:40;;;;;;;;;;;;;;;;;;5117790;27;19953;-83
2022/08/16 06:00:07;;;;;;;;;;;;;;;;;;5135862;27;19938;-83
2022/08/16 06:02:32;;;;;;;;;;;;;;;;;;5135850;27;19922;-82
2022/08/16 06:04:58;;;;;;;;;;;;;;;;;;5135652;27;19919;-82
2022/08/16 06:07:23;;;;;;;;;;;;;;;;;;5117237;27;19959;-83
2022/08/16 06:09:48;;;;;;;;;;;;;;;;;;5117918;27;19922;-82
2022/08/16 06:12:14;;;;;;;;;;;;;;;;;;5141921;27;20329;-82
2022/08/16 06:14:39;;;;;;;;;;;;;;;;;;5135386;27;20265;-82
2022/08/16 06:17:05;;;;;;;;;;;;;;;;;;5135526;27;19919;-83
2022/08/16 06:19:37;;;;;;;;;;;;;;;;;;5135542;27;19916;-83
2022/08/16 06:22:03;;;;;;;;;;;;;;;;;;5117320;27;19998;-82
2022/08/16 06:24:28;;;;;;;;;;;;;;;;;;5135445;27;19938;-82
2022/08/16 06:26:53;;;;;;;;;;;;;;;;;;5135392;27;19915;-82
2022/08/16 06:29:19;;;;;;;;;;;;;;;;;;5135710;27;19915;-82
2022/08/16 06:31:44;;;;;;;;;;;;;;;;;;5138350;28;19975;-82
2022/08/16 06:34:09;;;;;;;;;;;;;;;;;;5141513;28;19923;-82
2022/08/16 06:36:35;;;;;;;;;;;;;;;;;;5135630;28;20325;-83
2022/08/16 06:39:00;;;;;;;;;;;;;;;;;;5117568;28;19915;-83
2022/08/16 06:41:26;;;;;;;;;;;;;;;;;;5117288;28;19922;-83
2022/08/16 06:43:51;;;;;;;;;;;;;;;;;;5135266;28;20283;-82
2022/08/16 06:46:21;;;;;;;;;;;;;;;;;;5116863;28;19915;-82
2022/08/16 06:48:49;;;;;;;;;;;;;;;;;;5135825;28;20230;-82
2022/08/16 06:51:15;;;;;;;;;;;;;;;;;;5135669;28;20321;-82
2022/08/16 06:53:40;;;;;;;;;;;;;;;;;;5146379;28;19916;-83
2022/08/16 06:56:05;;;;;;;;;;;;;;;;;;5136071;28;19919;-81
2022/08/16 06:58:33;;;;;;;;;;;;;;;;;;5135274;28;20007;-83
2022/08/16 07:01:02;;;;;;;;;;;;;;;;;;5115864;28;19915;-82
2022/08/16 07:03:27;;;;;;;;;;;;;;;;;;5138181;27;20428;-82
2022/08/16 07:05:53;;;;;;;;;;;;;;;;;;5139321;27;19962;-82
2022/08/16 07:08:18;;;;;;;;;;;;;;;;;;5139176;27;19967;-82
2022/08/16 07:10:43;;;;;;;;;;;;;;;;;;5139209;27;19923;-81
2022/08/16 07:13:09;;;;;;;;;;;;;;;;;;5146350;27;19915;-82
2022/08/16 07:15:34;;;;;;;;;;;;;;;;;;5141145;27;19967;-82
2022/08/16 07:18:00;;;;;;;;;;;;;;;;;;5138674;27;19915;-82
2022/08/16 07:20:26;;;;;;;;;;;;;;;;;;5139296;27;19915;-82
2022/08/16 07:22:54;;;;;;;;;;;;;;;;;;5120575;27;19916;-83
2022/08/16 07:25:20;;;;;;;;;;;;;;;;;;5120721;27;20043;-82
2022/08/16 07:27:45;;;;;;;;;;;;;;;;;;5138404;27;19959;-81
2022/08/16 07:30:11;;;;;;;;;;;;;;;;;;5139094;27;19915;-82
2022/08/16 07:32:37;;;;;;;;;;;;;;;;;;5141399;27;19915;-82
2022/08/16 07:35:03;;;;;;;;;;;;;;;;;;5147162;27;19923;-82
2022/08/16 07:37:28;;;;;;;;;;;;;;;;;;5138934;27;20324;-80
2022/08/16 07:39:54;;;;;;;;;;;;;;;;;;5138339;27;19915;-80
2022/08/16 07:42:19;;;;;;;;;;;;;;;;;;5138013;27;19915;-83
2022/08/16 07:44:44;;;;;;;;;;;;;;;;;;5138554;27;19915;-82
2022/08/16 07:47:10;;;;;;;;;;;;;;;;;;5138538;27;19915;-82
2022/08/16 07:49:35;;;;;;;;;;;;;;;;;;5138541;27;20341;-82
2022/08/16 07:52:01;;;;;;;;;;;;;;;;;;5138486;27;20420;-83
2022/08/16 07:54:26;;;;;;;;;;;;;;;;;;5149937;27;19922;-83
2022/08/16 07:56:52;;;;;;;;;;;;;;;;;;5138404;27;20256;-81
2022/08/16 07:59:18;;;;;;;;;;;;;;;;;;5138715;27;19965;-82
2022/08/16 08:01:43;;;;;;;;;;;;;;;;;;5119806;27;19964;-82
2022/08/16 08:04:11;;;;;;;;;;;;;;;;;;5138172;27;19922;-83
2022/08/16 08:06:37;;;;;;;;;;;;;;;;;;5119703;27;19916;-81
2022/08/16 08:09:03;;;;;;;;;;;;;;;;;;5119629;27;19919;-82
2022/08/16 08:11:28;;;;;;;;;;;;;;;;;;5119618;27;20283;-81
2022/08/16 08:13:53;;;;;;;;;;;;;;;;;;5138149;27;19915;-81
2022/08/16 08:16:20;;;;;;;;;;;;;;;;;;5146309;27;19916;-83
2022/08/16 08:18:48;;;;;;;;;;;;;;;;;;5119435;27;19916;-82
2022/08/16 08:21:14;;;;;;;;;;;;;;;;;;5119235;27;20416;-82
2022/08/16 08:23:40;;;;;;;;;;;;;;;;;;5119495;27;19999;-82
2022/08/16 08:26:05;;;;;;;;;;;;;;;;;;5137215;27;20351;-83
2022/08/16 08:28:31;;;;;;;;;;;;;;;;;;5137505;27;19915;-81
2022/08/16 08:30:57;;;;;;;;;;;;;;;;;;5137711;27;19916;-83
2022/08/16 08:33:22;;;;;;;;;;;;;;;;;;5137956;27;20248;-82
2022/08/16 08:35:47;;;;;;;;;;;;;;;;;;5147376;27;19964;-82
2022/08/16 08:38:14;;;;;;;;;;;;;;;;;;5138042;27;20240;-81
2022/08/16 08:40:40;;;;;;;;;;;;;;;;;;5137547;27;20355;-82
2022/08/16 08:43:07;;;;;;;;;;;;;;;;;;5136682;27;19950;-81
2022/08/16 08:45:32;;;;;;;;;;;;;;;;;;5119846;27;19950;-83
2022/08/16 08:47:57;;;;;;;;;;;;;;;;;;5119083;27;19951;-82
2022/08/16 08:50:23;;;;;;;;;;;;;;;;;;5118960;27;20332;-82
2022/08/16 08:52:50;;;;;;;;;;;;;;;;;;5118930;27;19916;-82
2022/08/16 08:55:16;;;;;;;;;;;;;;;;;;5138533;27;20010;-81
2022/08/16 08:57:42;;;;;;;;;;;;;;;;;;5144328;27;20323;-83
2022/08/16 09:00:08;;;;;;;;;;;;;;;;;;5136889;27;19916;-82
2022/08/16 09:02:33;;;;;;;;;;;;;;;;;;5137291;27;19916;-81
2022/08/16 09:04:59;;;;;;;;;;;;;;;;;;5136822;27;19915;-82
2022/08/16 09:07:24;;;;;;;;;;;;;;;;;;5136969;27;19984;-81
2022/08/16 09:09:49;;;;;;;;;;;;;;;;;;5136756;27;19915;-82
2022/08/16 09:12:17;;;;;;;;;;;;;;;;;;5137114;27;19995;-82
2022/08/16 09:14:44;;;;;;;;;;;;;;;;;;5137077;27;19945;-82
2022/08/16 09:17:09;;;;;;;;;;;;;;;;;;5141692;27;19920;-81
2022/08/16 09:19:37;;;;;;;;;;;;;;;;;;5105109;27;20291;-82
2022/08/16 09:22:03;;;;;;;;;;;;;;;;;;5136507;27;19954;-82
2022/08/16 09:24:28;;;;;;;;;;;;;;;;;;5136700;27;20352;-82
2022/08/16 09:26:54;;;;;;;;;;;;;;;;;;5135987;27;19915;-81
2022/08/16 09:29:19;;;;;;;;;;;;;;;;;;5136534;27;19915;-81
2022/08/16 09:31:46;;;;;;;;;;;;;;;;;;5136843;27;19916;-82
2022/08/16 09:34:11;;;;;;;;;;;;;;;;;;5136358;27;20071;-82
2022/08/16 09:36:36;;;;;;;;;;;;;;;;;;5140608;27;19968;-82
2022/08/16 09:39:02;;;;;;;;;;;;;;;;;;5142042;27;19976;-82
2022/08/16 09:41:27;;;;;;;;;;;;;;;;;;5136420;27;19915;-82
2022/08/16 09:43:53;;;;;;;;;;;;;;;;;;5136138;27;19972;-81
2022/08/16 09:46:18;;;;;;;;;;;;;;;;;;5117848;27;19916;-82
2022/08/16 09:48:43;;;;;;;;;;;;;;;;;;5136120;27;19916;-82
2022/08/16 09:51:09;;;;;;;;;;;;;;;;;;5136321;27;20274;-82
2022/08/16 09:53:34;;;;;;;;;;;;;;;;;;5136079;27;19957;-81
2022/08/16 09:56:01;;;;;;;;;;;;;;;;;;5135692;27;19927;-81
2022/08/16 09:58:26;;;;;;;;;;;;;;;;;;5138959;27;19916;-82
2022/08/16 10:00:51;;;;;;;;;;;;;;;;;;5136084;27;19964;-83
2022/08/16 10:03:17;;;;;;;;;;;;;;;;;;5117379;27;19915;-82
2022/08/16 10:05:42;;;;;;;;;;;;;;;;;;5135941;27;19915;-81
2022/08/16 10:08:08;;;;;;;;;;;;;;;;;;5135845;27;19938;-81
2022/08/16 10:10:33;;;;;;;;;;;;;;;;;;5117121;27;19938;-81
2022/08/16 10:13:11;;;;;;;;;;;;;;;;;;5135779;27;19941;-82
2022/08/16 10:15:36;;;;;;;;;;;;;;;;;;5117372;27;19915;-81
2022/08/16 10:18:06;;;;;;;;;;;;;;;;;;5124701;27;19910;-80
2022/08/16 10:20:36;;;;;;;;;;;;;;;;;;5121589;27;19959;-82
2022/08/16 10:23:02;;;;;;;;;;;;;;;;;;5135755;27;19924;-81
2022/08/16 10:25:28;;;;;;;;;;;;;;;;;;5135604;27;19918;-81
2022/08/16 10:27:53;;;;;;;;;;;;;;;;;;5135498;27;19958;-82
2022/08/16 10:30:19;;;;;;;;;;;;;;;;;;5135625;27;19999;-81
2022/08/16 10:32:44;;;;;;;;;;;;;;;;;;5135312;28;20360;-81
2022/08/16 10:35:09;;;;;;;;;;;;;;;;;;5135281;28;19915;-82
2022/08/16 10:37:34;;;;;;;;;;;;;;;;;;5120649;27;19948;-82
2022/08/16 10:40:00;;;;;;;;;;;;;;;;;;5148530;27;20320;-81
2022/08/16 10:42:26;;;;;;;;;;;;;;;;;;5121501;27;20273;-81
2022/08/16 10:44:51;;;;;;;;;;;;;;;;;;5139524;27;19921;-80
2022/08/16 10:47:16;;;;;;;;;;;;;;;;;;5140078;27;19915;-82
2022/08/16 10:49:42;;;;;;;;;;;;;;;;;;5139712;27;19972;-81
2022/08/16 10:52:07;;;;;;;;;;;;;;;;;;5104250;27;19915;-80
2022/08/16 10:54:32;;;;;;;;;;;;;;;;;;5139477;27;20226;-81
2022/08/16 10:56:58;;;;;;;;;;;;;;;;;;5139242;27;20298;-82
2022/08/16 10:59:24;;;;;;;;;;;;;;;;;;5151858;27;19908;-81
2022/08/16 11:01:50;;;;;;;;;;;;;;;;;;5140341;27;19965;-81
2022/08/16 11:04:15;;;;;;;;;;;;;;;;;;5138977;27;20355;-82
2022/08/16 11:06:41;;;;;;;;;;;;;;;;;;5139548;27;20337;-81
2022/08/16 11:09:06;;;;;;;;;;;;;;;;;;5138826;27;20372;-80
2022/08/16 11:11:31;;;;;;;;;;;;;;;;;;5139139;27;20293;-80
2022/08/16 11:13:57;;;;;;;;;;;;;;;;;;5139146;27;20002;-81
2022/08/16 11:16:22;;;;;;;;;;;;;;;;;;5138989;27;20018;-80
2022/08/16 11:18:47;;;;;;;;;;;;;;;;;;5142399;27;19967;-81
2022/08/16 11:21:13;;;;;;;;;;;;;;;;;;5144124;27;20003;-80
2022/08/16 11:23:39;;;;;;;;;;;;;;;;;;5138753;27;19915;-81
2022/08/16 11:26:05;;;;;;;;;;;;;;;;;;5138720;27;19984;-81
2022/08/16 11:28:30;;;;;;;;;;;;;;;;;;5138740;27;19915;-80
2022/08/16 11:30:56;;;;;;;;;;;;;;;;;;5138808;27;19915;-81
2022/08/16 11:33:21;;;;;;;;;;;;;;;;;;5138052;27;19923;-81
2022/08/16 11:35:47;;;;;;;;;;;;;;;;;;5120023;27;19916;-80
2022/08/16 11:38:16;;;;;;;;;;;;;;;;;;5138715;27;20397;-80
2022/08/16 11:40:49;;;;;;;;;;;;;;;;;;5144971;27;19923;-80
2022/08/16 11:43:15;;;;;;;;;;;;;;;;;;5138469;27;19915;-80
2022/08/16 11:45:40;;;;;;;;;;;;;;;;;;5138715;27;19938;-80
2022/08/16 11:48:05;;;;;;;;;;;;;;;;;;5119743;27;20321;-82
2022/08/16 11:50:34;;;;;;;;;;;;;;;;;;5138671;27;19922;-81
2022/08/16 11:52:59;;;;;;;;;;;;;;;;;;5138000;27;20354;-82
2022/08/16 11:55:25;;;;;;;;;;;;;;;;;;5119757;27;19923;-82
2022/08/16 11:57:50;;;;;;;;;;;;;;;;;;5138669;27;20264;-81
2022/08/16 12:00:19;;;;;;;;;;;;;;;;;;5131093;27;19911;-82
2022/08/16 12:02:44;;;;;;;;;;;;;;;;;;5139611;27;20333;-82
2022/08/16 12:05:10;;;;;;;;;;;;;;;;;;5119956;27;19915;-82
2022/08/16 12:07:36;;;;;;;;;;;;;;;;;;5137822;27;20010;-82
2022/08/16 12:10:02;;;;;;;;;;;;;;;;;;5138063;27;19958;-81
2022/08/16 12:12:27;;;;;;;;;;;;;;;;;;5138098;27;20297;-80
2022/08/16 12:14:53;;;;;;;;;;;;;;;;;;5138247;27;20052;-80
2022/08/16 12:17:19;;;;;;;;;;;;;;;;;;5119356;27;19916;-80
2022/08/16 12:19:45;;;;;;;;;;;;;;;;;;5139049;27;20320;-79
2022/08/16 12:22:10;;;;;;;;;;;;;;;;;;5144059;27;19916;-80
2022/08/16 12:24:38;;;;;;;;;;;;;;;;;;5119602;27;19912;-86
2022/08/16 12:27:04;;;;;;;;;;;;;;;;;;5119648;27;20393;-85
2022/08/16 12:29:29;;;;;;;;;;;;;;;;;;5119658;27;19922;-87
2022/08/16 12:31:54;;;;;;;;;;;;;;;;;;5118899;27;19916;-89
2022/08/16 12:34:20;;;;;;;;;;;;;;;;;;5137625;27;19922;-85
2022/08/16 12:36:45;;;;;;;;;;;;;;;;;;5118954;27;20321;-87
2022/08/16 12:39:10;;;;;;;;;;;;;;;;;;5137543;27;20002;-87
2022/08/16 12:41:36;;;;;;;;;;;;;;;;;;5123041;27;19920;-87
2022/08/16 12:44:03;;;;;;;;;;;;;;;;;;5124591;27;19919;-88
2022/08/16 12:46:28;;;;;;;;;;;;;;;;;;5119142;27;20348;-86
2022/08/16 12:48:56;;;;;;;;;;;;;;;;;;5137387;27;19915;-86
2022/08/16 12:51:23;;;;;;;;;;;;;;;;;;5119435;27;20067;-86
2022/08/16 12:53:50;;;;;;;;;;;;;;;;;;5118683;27;19919;-85
2022/08/16 12:56:16;;;;;;;;;;;;;;;;;;5114852;28;20007;-87
2022/08/16 12:58:41;;;;;;;;;;;;;;;;;;5115413;28;19920;-90
2022/08/16 13:01:09;;;;;;;;;;;;;;;;;;5098139;28;19973;-85
2022/08/16 13:03:37;;;;;;;;;;;;;;;;;;5125334;27;19916;-86
2022/08/16 13:06:07;;;;;;;;;;;;;;;;;;5104188;28;20364;-89
2022/08/16 13:08:33;;;;;;;;;;;;;;;;;;5115311;28;20018;-85
2022/08/16 13:10:58;;;;;;;;;;;;;;;;;;5116473;28;19958;-90
2022/08/16 13:13:25;;;;;;;;;;;;;;;;;;5115111;28;19916;-90
2022/08/16 13:15:54;;;;;;;;;;;;;;;;;;5114750;28;19920;-88
2022/08/16 13:18:19;;;;;;;;;;;;;;;;;;5115125;28;20234;-87
2022/08/16 13:20:45;;;;;;;;;;;;;;;;;;5114998;28;19916;-87
2022/08/16 13:23:10;;;;;;;;;;;;;;;;;;5123436;28;19907;-86
2022/08/16 13:25:36;;;;;;;;;;;;;;;;;;5100236;28;20438;-87
2022/08/16 13:28:24;;;;;;;;;;;;;;;;;;5115701;28;19920;-90
2022/08/16 13:30:53;;;;;;;;;;;;;;;;;;5098782;28;19923;-87
2022/08/16 13:33:23;;;;;;;;;;;;;;;;;;5116774;28;19955;-89
2022/08/16 13:35:49;;;;;;;;;;;;;;;;;;5116695;28;20253;-87
2022/08/16 13:38:14;;;;;;;;;;;;;;;;;;5114614;28;19916;-89
2022/08/16 13:40:40;;;;;;;;;;;;;;;;;;5097774;28;20210;-88
2022/08/16 13:43:05;;;;;;;;;;;;;;;;;;5122021;28;19983;-87
2022/08/16 13:45:32;;;;;;;;;;;;;;;;;;5119555;28;19916;-88
2022/08/16 13:47:58;;;;;;;;;;;;;;;;;;5115631;28;20218;-88
2022/08/16 13:50:24;;;;;;;;;;;;;;;;;;5114462;28;19923;-87
2022/08/16 13:52:50;;;;;;;;;;;;;;;;;;5114569;28;20073;-88
2022/08/16 13:55:15;;;;;;;;;;;;;;;;;;5120987;27;20375;-88
2022/08/16 13:57:40;;;;;;;;;;;;;;;;;;5118618;27;19920;-86
2022/08/16 14:00:09;;;;;;;;;;;;;;;;;;5136264;27;20265;-87
2022/08/16 14:02:35;;;;;;;;;;;;;;;;;;5121080;27;19915;-87
2022/08/16 14:05:00;;;;;;;;;;;;;;;;;;5126625;27;20233;-89
2022/08/16 14:07:25;;;;;;;;;;;;;;;;;;5117926;27;20324;-89
2022/08/16 14:09:51;;;;;;;;;;;;;;;;;;5117301;27;20287;-88
2022/08/16 14:12:26;;;;;;;;;;;;;;;;;;5116437;27;20319;-89
2022/08/16 14:14:51;;;;;;;;;;;;;;;;;;5118268;27;19916;-89
2022/08/16 14:17:17;;;;;;;;;;;;;;;;;;5138094;27;19979;-88
2022/08/16 14:19:45;;;;;;;;;;;;;;;;;;5102288;28;19915;-90
2022/08/16 14:25:16;;;;;;;;;;;;;;;;;;5097583;28;19958;-89
2022/08/16 14:27:41;;;;;;;;;;;;;;;;;;5135435;27;19916;-86
2022/08/16 14:30:08;;;;;;;;;;;;;;;;;;5117303;28;19972;-88
2022/08/16 14:32:34;;;;;;;;;;;;;;;;;;5100815;28;19968;-93
2022/08/16 14:34:59;;;;;;;;;;;;;;;;;;5116982;28;20358;-86
2022/08/16 14:37:24;;;;;;;;;;;;;;;;;;5117254;28;19911;-88
2022/08/16 14:39:50;;;;;;;;;;;;;;;;;;5116937;28;19923;-87
2022/08/16 14:42:19;;;;;;;;;;;;;;;;;;5100239;28;19951;-88
2022/08/16 14:44:47;;;;;;;;;;;;;;;;;;5125445;28;20019;-86
2022/08/16 14:47:13;;;;;;;;;;;;;;;;;;5117557;28;19915;-88
2022/08/16 14:49:38;;;;;;;;;;;;;;;;;;5116922;28;19915;-90
2022/08/16 14:52:04;;;;;;;;;;;;;;;;;;5135220;28;19915;-90
2022/08/16 14:54:30;;;;;;;;;;;;;;;;;;5099820;28;19916;-89
2022/08/16 14:56:55;;;;;;;;;;;;;;;;;;5135223;28;19992;-86
2022/08/16 14:59:21;;;;;;;;;;;;;;;;;;5135296;28;19923;-87
2022/08/16 15:01:46;;;;;;;;;;;;;;;;;;5117380;28;19923;-87
2022/08/16 15:04:14;;;;;;;;;;;;;;;;;;5105108;28;19915;-88
2022/08/16 15:06:42;;;;;;;;;;;;;;;;;;5139661;28;19922;-88
2022/08/16 15:09:07;;;;;;;;;;;;;;;;;;5117991;28;19958;-87
2022/08/16 15:11:33;;;;;;;;;;;;;;;;;;5135051;28;19916;-89
2022/08/16 15:13:58;;;;;;;;;;;;;;;;;;5135408;28;20264;-88
2022/08/16 15:16:23;;;;;;;;;;;;;;;;;;5116618;28;20344;-88
2022/08/16 15:18:49;;;;;;;;;;;;;;;;;;5116933;28;19965;-87
2022/08/16 15:21:17;;;;;;;;;;;;;;;;;;5100064;28;19915;-90
2022/08/16 15:23:43;;;;;;;;;;;;;;;;;;5102777;27;20301;-88
2022/08/16 15:26:08;;;;;;;;;;;;;;;;;;5146740;27;19946;-88
2022/08/16 15:28:40;;;;;;;;;;;;;;;;;;5139210;27;19915;-87
2022/08/16 15:31:06;;;;;;;;;;;;;;;;;;5120294;27;19915;-89
2022/08/16 15:33:32;;;;;;;;;;;;;;;;;;5120763;27;19915;-87
2022/08/16 15:35:58;;;;;;;;;;;;;;;;;;5120525;27;20349;-90
2022/08/16 15:38:23;;;;;;;;;;;;;;;;;;5138514;27;19915;-89
2022/08/16 15:40:49;;;;;;;;;;;;;;;;;;5138238;27;19915;-87
2022/08/16 15:43:17;;;;;;;;;;;;;;;;;;5120006;27;19915;-88
2022/08/16 15:48:29;;;;;;;;;;;;;;;;;;5123161;27;19980;-88
2022/08/16 15:50:58;;;;;;;;;;;;;;;;;;5138347;27;20332;-90
2022/08/16 15:53:29;;;;;;;;;;;;;;;;;;5103042;27;19915;-89
2022/08/16 15:55:55;;;;;;;;;;;;;;;;;;5138109;27;20002;-90
2022/08/16 15:58:20;;;;;;;;;;;;;;;;;;5138042;27;19919;-88
2022/08/16 16:00:45;;;;;;;;;;;;;;;;;;5143172;27;19923;-87
2022/08/16 16:03:15;;;;;;;;;;;;;;;;;;5139759;27;19972;-88
2022/08/16 16:05:41;;;;;;;;;;;;;;;;;;5153085;27;19915;-87
2022/08/16 16:08:06;;;;;;;;;;;;;;;;;;5141144;27;20428;-86
2022/08/16 16:10:32;;;;;;;;;;;;;;;;;;5139284;27;19904;-86
2022/08/16 16:15:24;;;;;;;;;;;;;;;;;;5366306;22;20238;-92
2022/08/16 16:17:49;;;;;;;;;;;;;;;;;;5158948;27;19915;-92
2022/08/16 16:20:15;;;;;;;;;;;;;;;;;;5159483;27;20309;-89
2022/08/16 16:22:42;;;;;;;;;;;;;;;;;;5157706;27;19915;-87
2022/08/16 16:25:07;;;;;;;;;;;;;;;;;;5157666;27;19915;-89
2022/08/16 16:27:34;;;;;;;;;;;;;;;;;;5167241;27;19965;-89
2022/08/16 16:30:01;;;;;;;;;;;;;;;;;;5158816;27;19922;-87
2022/08/16 16:32:27;;;;;;;;;;;;;;;;;;5140150;27;20040;-87
2022/08/16 16:34:52;;;;;;;;;;;;;;;;;;5156435;27;20014;-89
2022/08/16 16:37:18;;;;;;;;;;;;;;;;;;5156878;27;19915;-87
2022/08/16 16:39:43;;;;;;;;;;;;;;;;;;5158611;27;19915;-89
2022/08/16 16:42:09;;;;;;;;;;;;;;;;;;5158615;27;19915;-87
2022/08/16 16:44:38;;;;;;;;;;;;;;;;;;5158545;27;19915;-89